PWSweather.com
Personal Weather Stations
Station Observations
KMAWOBUR2
West Side, Woburn, MA 01801

West SideWoburn, MA 01801

Lat: 42.458, Lon: -71.1955

Elevation: 160

Station Type: DAVIS/Vantage Pro2

http://pauland.net

Latest ConditionsUpdated 3:00:05 AM GMT Tuesday, May 3, 2016
Currently Today's Max Today's Min Today's Average
Temperature 46.0°F7.8°C 48.3°F9.1°C 46.0°F7.8°C 46.8°F8.2°C
Dew Point 44.9°F7.2°C 47.2°F8.4°C 44.9°F7.2°C 45.7°F7.6°C
Winds Calm Calm 5.0 mph NNW8.0 kmh NNW - 0.5 mph 0.8 kmh
Wind Gusts -- 7.0 mph11.3 kmh - -
Humidity 96% 96% 96% 96%
Pressure 29.89 in1012.2 mb 29.91 in1012.9 mb 29.86 in1011.2 mb -
Precipitation - 0.40 in10.2 mm - -
Hour Temp Dew Point Humidity Winds Wind Gusts Pressure Precip Precip Rate Daily Precip Total
03:00 AM 46.0°F7.8°C 44.9°F7.2°C 96% Calm Calm -- 29.89 in1012.2 mb 0.00 in0.0 mm 0.00 in0.0 mm 0.40 in10.2 mm
02:55 AM 46.0°F7.8°C 44.9°F7.2°C 96% Calm Calm 2.0 mph3.2 kmh 29.90 in1012.5 mb 0.00 in0.0 mm 0.00 in0.0 mm 0.40 in10.2 mm
02:50 AM 46.0°F7.8°C 44.9°F7.2°C 96% Calm Calm 1.0 mph1.6 kmh 29.90 in1012.5 mb 0.00 in0.0 mm 0.00 in0.0 mm 0.40 in10.2 mm
02:45 AM 46.1°F7.8°C 45.0°F7.2°C 96% Calm Calm 2.0 mph3.2 kmh 29.90 in1012.5 mb 0.00 in0.0 mm 0.00 in0.0 mm 0.40 in10.2 mm
02:40 AM 46.1°F7.8°C 45.0°F7.2°C 96% Calm Calm -- 29.90 in1012.5 mb 0.00 in0.0 mm 0.00 in0.0 mm 0.40 in10.2 mm
02:35 AM 46.1°F7.8°C 45.0°F7.2°C 96% Calm Calm -- 29.90 in1012.5 mb 0.00 in0.0 mm 0.00 in0.0 mm 0.40 in10.2 mm
02:30 AM 46.1°F7.8°C 45.0°F7.2°C 96% Calm Calm -- 29.90 in1012.5 mb 0.00 in0.0 mm 0.00 in0.0 mm 0.40 in10.2 mm
02:25 AM 46.0°F7.8°C 44.9°F7.2°C 96% Calm Calm 2.0 mph3.2 kmh 29.91 in1012.9 mb 0.00 in0.0 mm 0.00 in0.0 mm 0.40 in10.2 mm
02:20 AM 46.0°F7.8°C 44.9°F7.2°C 96% Calm Calm 2.0 mph3.2 kmh 29.91 in1012.9 mb 0.00 in0.0 mm 0.00 in0.0 mm 0.40 in10.2 mm
02:15 AM 46.0°F7.8°C 44.9°F7.2°C 96% Calm Calm 1.0 mph1.6 kmh 29.91 in1012.9 mb 0.00 in0.0 mm 0.00 in0.0 mm 0.40 in10.2 mm
02:10 AM 46.1°F7.8°C 45.0°F7.2°C 96% Calm Calm 1.0 mph1.6 kmh 29.90 in1012.5 mb 0.00 in0.0 mm 0.00 in0.0 mm 0.40 in10.2 mm
02:05 AM 46.1°F7.8°C 45.0°F7.2°C 96% Calm Calm 3.0 mph4.8 kmh 29.90 in1012.5 mb 0.00 in0.0 mm 0.00 in0.0 mm 0.40 in10.2 mm
02:00 AM 46.2°F7.9°C 45.1°F7.3°C 96% Calm Calm 3.0 mph4.8 kmh 29.90 in1012.5 mb 0.00 in0.0 mm 0.00 in0.0 mm 0.40 in10.2 mm
01:55 AM 46.2°F7.9°C 45.1°F7.3°C 96% 1.0 mph NNW1.6 kmh NNW 3.0 mph4.8 kmh 29.89 in1012.2 mb 0.00 in0.0 mm 0.00 in0.0 mm 0.40 in10.2 mm
01:50 AM 46.2°F7.9°C 45.1°F7.3°C 96% 1.0 mph NNW1.6 kmh NNW 4.0 mph6.4 kmh 29.89 in1012.2 mb 0.00 in0.0 mm 0.00 in0.0 mm 0.40 in10.2 mm
01:45 AM 46.4°F8.0°C 45.3°F7.4°C 96% 3.0 mph NNW4.8 kmh NNW 6.0 mph9.7 kmh 29.89 in1012.2 mb 0.00 in0.0 mm 0.00 in0.0 mm 0.40 in10.2 mm
01:40 AM 46.5°F8.1°C 45.4°F7.4°C 96% 4.0 mph NNE6.4 kmh NNE 4.0 mph6.4 kmh 29.90 in1012.5 mb 0.00 in0.0 mm 0.00 in0.0 mm 0.40 in10.2 mm
01:35 AM 46.7°F8.2°C 45.6°F7.6°C 96% 5.0 mph NNW8.0 kmh NNW 5.0 mph8.0 kmh 29.90 in1012.5 mb 0.00 in0.0 mm 0.00 in0.0 mm 0.40 in10.2 mm
01:30 AM 46.7°F8.2°C 45.6°F7.6°C 96% Calm Calm 2.0 mph3.2 kmh 29.90 in1012.5 mb 0.00 in0.0 mm 0.00 in0.0 mm 0.40 in10.2 mm
01:25 AM 46.8°F8.2°C 45.7°F7.6°C 96% Calm Calm 1.0 mph1.6 kmh 29.90 in1012.5 mb 0.00 in0.0 mm 0.00 in0.0 mm 0.40 in10.2 mm
01:20 AM 47.0°F8.3°C 45.9°F7.7°C 96% Calm Calm 7.0 mph11.3 kmh 29.90 in1012.5 mb 0.00 in0.0 mm 0.00 in0.0 mm 0.40 in10.2 mm
01:15 AM 47.0°F8.3°C 45.9°F7.7°C 96% Calm Calm 1.0 mph1.6 kmh 29.90 in1012.5 mb 0.00 in0.0 mm 0.00 in0.0 mm 0.40 in10.2 mm
01:10 AM 47.1°F8.4°C 46.0°F7.8°C 96% Calm Calm -- 29.88 in1011.9 mb 0.00 in0.0 mm 0.00 in0.0 mm 0.40 in10.2 mm
01:05 AM 47.1°F8.4°C 46.0°F7.8°C 96% Calm Calm -- 29.88 in1011.9 mb 0.00 in0.0 mm 0.00 in0.0 mm 0.40 in10.2 mm
01:00 AM 47.1°F8.4°C 46.0°F7.8°C 96% Calm Calm 2.0 mph3.2 kmh 29.88 in1011.9 mb 0.00 in0.0 mm 0.00 in0.0 mm 0.40 in10.2 mm
12:55 AM 47.1°F8.4°C 46.0°F7.8°C 96% 1.0 mph N1.6 kmh N 3.0 mph4.8 kmh 29.88 in1011.9 mb 0.00 in0.0 mm 0.00 in0.0 mm 0.40 in10.2 mm
12:50 AM 47.3°F8.5°C 46.2°F7.9°C 96% Calm Calm 4.0 mph6.4 kmh 29.88 in1011.9 mb 0.00 in0.0 mm 0.00 in0.0 mm 0.40 in10.2 mm
12:45 AM 47.4°F8.6°C 46.3°F7.9°C 96% Calm Calm 4.0 mph6.4 kmh 29.88 in1011.9 mb 0.00 in0.0 mm 0.00 in0.0 mm 0.40 in10.2 mm
12:40 AM 47.6°F8.7°C 46.5°F8.1°C 96% Calm Calm 3.0 mph4.8 kmh 29.87 in1011.5 mb 0.00 in0.0 mm 0.00 in0.0 mm 0.40 in10.2 mm
12:35 AM 47.7°F8.7°C 46.6°F8.1°C 96% Calm Calm 4.0 mph6.4 kmh 29.87 in1011.5 mb 0.00 in0.0 mm 0.00 in0.0 mm 0.40 in10.2 mm
12:30 AM 47.7°F8.7°C 46.6°F8.1°C 96% Calm Calm 3.0 mph4.8 kmh 29.87 in1011.5 mb 0.00 in0.0 mm 0.00 in0.0 mm 0.40 in10.2 mm
12:25 AM 47.9°F8.8°C 46.8°F8.2°C 96% Calm Calm 4.0 mph6.4 kmh 29.87 in1011.5 mb 0.00 in0.0 mm 0.00 in0.0 mm 0.40 in10.2 mm
12:20 AM 48.0°F8.9°C 46.9°F8.3°C 96% Calm Calm 5.0 mph8.0 kmh 29.87 in1011.5 mb 0.00 in0.0 mm 0.00 in0.0 mm 0.40 in10.2 mm
12:15 AM 48.0°F8.9°C 46.9°F8.3°C 96% 2.0 mph N3.2 kmh N 2.0 mph3.2 kmh 29.87 in1011.5 mb 0.00 in0.0 mm 0.00 in0.0 mm 0.40 in10.2 mm
12:10 AM 48.0°F8.9°C 46.9°F8.3°C 96% Calm Calm 3.0 mph4.8 kmh 29.86 in1011.2 mb 0.00 in0.0 mm 0.00 in0.0 mm 0.40 in10.2 mm
12:05 AM 48.2°F9.0°C 47.1°F8.4°C 96% 1.0 mph N1.6 kmh N 3.0 mph4.8 kmh 29.86 in1011.2 mb 0.01 in0.3 mm 0.00 in0.0 mm 0.40 in10.2 mm
12:00 AM 48.3°F9.1°C 47.2°F8.4°C 96% Calm Calm 4.0 mph6.4 kmh 29.86 in1011.2 mb 0.01 in0.3 mm 0.00 in0.0 mm 0.40 in10.2 mm